sensor_id;sensor_type;location;lat;lon;timestamp;temperature;humidity
15937;DHT22;9163;48.818;8.976;2023-02-28T00:00:37;-3.40;96.90
15937;DHT22;9163;48.818;8.976;2023-02-28T00:03:05;-3.40;96.80
15937;DHT22;9163;48.818;8.976;2023-02-28T00:05:33;-3.40;96.40
15937;DHT22;9163;48.818;8.976;2023-02-28T00:08:00;-3.40;99.90
15937;DHT22;9163;48.818;8.976;2023-02-28T00:10:29;-3.40;99.90
15937;DHT22;9163;48.818;8.976;2023-02-28T00:13:00;-3.40;99.90
15937;DHT22;9163;48.818;8.976;2023-02-28T00:15:27;-3.40;99.90
15937;DHT22;9163;48.818;8.976;2023-02-28T00:17:55;-3.40;99.90
15937;DHT22;9163;48.818;8.976;2023-02-28T00:20:22;-3.50;99.90
15937;DHT22;9163;48.818;8.976;2023-02-28T00:22:51;-3.50;99.90
15937;DHT22;9163;48.818;8.976;2023-02-28T00:25:21;-3.50;99.90
15937;DHT22;9163;48.818;8.976;2023-02-28T00:27:49;-3.50;99.90
15937;DHT22;9163;48.818;8.976;2023-02-28T00:30:18;-3.50;99.90
15937;DHT22;9163;48.818;8.976;2023-02-28T00:32:46;-3.50;99.90
15937;DHT22;9163;48.818;8.976;2023-02-28T00:35:13;-3.50;99.90
15937;DHT22;9163;48.818;8.976;2023-02-28T00:37:41;-3.50;99.90
15937;DHT22;9163;48.818;8.976;2023-02-28T00:40:10;-3.50;99.90
15937;DHT22;9163;48.818;8.976;2023-02-28T00:42:38;-3.50;99.90
15937;DHT22;9163;48.818;8.976;2023-02-28T00:45:06;-3.60;99.90
15937;DHT22;9163;48.818;8.976;2023-02-28T00:47:36;-3.60;99.90
15937;DHT22;9163;48.818;8.976;2023-02-28T00:50:04;-3.60;99.90
15937;DHT22;9163;48.818;8.976;2023-02-28T00:52:31;-3.60;99.90
15937;DHT22;9163;48.818;8.976;2023-02-28T00:54:59;-3.60;99.90
15937;DHT22;9163;48.818;8.976;2023-02-28T00:57:26;-3.60;99.90
15937;DHT22;9163;48.818;8.976;2023-02-28T00:59:53;-3.60;99.90
15937;DHT22;9163;48.818;8.976;2023-02-28T01:02:21;-3.70;99.90
15937;DHT22;9163;48.818;8.976;2023-02-28T01:04:50;-3.70;99.90
15937;DHT22;9163;48.818;8.976;2023-02-28T01:07:17;-3.70;99.90
15937;DHT22;9163;48.818;8.976;2023-02-28T01:09:44;-3.70;99.90
15937;DHT22;9163;48.818;8.976;2023-02-28T01:12:12;-3.70;99.90
15937;DHT22;9163;48.818;8.976;2023-02-28T01:14:39;-3.70;99.90
15937;DHT22;9163;48.818;8.976;2023-02-28T01:17:07;-3.80;99.90
15937;DHT22;9163;48.818;8.976;2023-02-28T01:19:34;-3.80;99.90
15937;DHT22;9163;48.818;8.976;2023-02-28T01:22:04;-3.80;99.90
15937;DHT22;9163;48.818;8.976;2023-02-28T01:24:31;-3.80;99.90
15937;DHT22;9163;48.818;8.976;2023-02-28T01:26:59;-3.80;99.90
15937;DHT22;9163;48.818;8.976;2023-02-28T01:29:26;-3.90;99.90
15937;DHT22;9163;48.818;8.976;2023-02-28T01:32:27;-3.90;99.90
15937;DHT22;9163;48.818;8.976;2023-02-28T01:38:37;-4.00;99.90
15937;DHT22;9163;48.818;8.976;2023-02-28T01:41:05;-4.00;99.90
15937;DHT22;9163;48.818;8.976;2023-02-28T01:43:59;-4.00;99.90
15937;DHT22;9163;48.818;8.976;2023-02-28T01:46:29;-4.00;99.90
15937;DHT22;9163;48.818;8.976;2023-02-28T01:49:02;-3.90;99.90
15937;DHT22;9163;48.818;8.976;2023-02-28T01:51:38;-3.90;99.90
15937;DHT22;9163;48.818;8.976;2023-02-28T01:54:10;-4.00;99.90
15937;DHT22;9163;48.818;8.976;2023-02-28T01:56:43;-3.90;99.90
15937;DHT22;9163;48.818;8.976;2023-02-28T01:59:12;-3.90;99.90
15937;DHT22;9163;48.818;8.976;2023-02-28T02:01:41;-4.00;99.90
15937;DHT22;9163;48.818;8.976;2023-02-28T02:04:08;-4.00;99.90
15937;DHT22;9163;48.818;8.976;2023-02-28T02:06:38;-4.10;99.90
15937;DHT22;9163;48.818;8.976;2023-02-28T02:09:08;-4.10;99.90
15937;DHT22;9163;48.818;8.976;2023-02-28T02:11:35;-4.10;99.90
15937;DHT22;9163;48.818;8.976;2023-02-28T02:14:18;-4.10;99.90
15937;DHT22;9163;48.818;8.976;2023-02-28T02:17:05;-4.10;99.90
15937;DHT22;9163;48.818;8.976;2023-02-28T02:19:54;-4.10;99.90
15937;DHT22;9163;48.818;8.976;2023-02-28T02:25:35;-4.10;99.90
15937;DHT22;9163;48.818;8.976;2023-02-28T02:31:39;-4.10;99.90
15937;DHT22;9163;48.818;8.976;2023-02-28T02:37:10;-4.00;99.90
15937;DHT22;9163;48.818;8.976;2023-02-28T02:39:47;-4.00;99.90
15937;DHT22;9163;48.818;8.976;2023-02-28T02:42:21;-4.00;99.90
15937;DHT22;9163;48.818;8.976;2023-02-28T02:44:53;-4.00;99.90
15937;DHT22;9163;48.818;8.976;2023-02-28T02:47:27;-4.00;99.90
15937;DHT22;9163;48.818;8.976;2023-02-28T02:49:59;-4.00;99.90
15937;DHT22;9163;48.818;8.976;2023-02-28T02:52:32;-4.00;99.90
15937;DHT22;9163;48.818;8.976;2023-02-28T02:55:02;-4.00;99.90
15937;DHT22;9163;48.818;8.976;2023-02-28T02:57:33;-3.90;99.90
15937;DHT22;9163;48.818;8.976;2023-02-28T03:00:04;-3.90;99.90
15937;DHT22;9163;48.818;8.976;2023-02-28T03:02:35;-3.80;99.90
15937;DHT22;9163;48.818;8.976;2023-02-28T03:05:08;-3.90;99.90
15937;DHT22;9163;48.818;8.976;2023-02-28T03:07:38;-3.80;99.90
15937;DHT22;9163;48.818;8.976;2023-02-28T03:10:31;-3.90;99.90
15937;DHT22;9163;48.818;8.976;2023-02-28T03:13:11;-3.80;99.90
15937;DHT22;9163;48.818;8.976;2023-02-28T03:15:50;-3.80;99.90
15937;DHT22;9163;48.818;8.976;2023-02-28T03:18:24;-3.80;99.90
15937;DHT22;9163;48.818;8.976;2023-02-28T03:21:01;-3.80;99.90
15937;DHT22;9163;48.818;8.976;2023-02-28T03:23:37;-3.80;99.90
15937;DHT22;9163;48.818;8.976;2023-02-28T03:26:11;-3.70;99.90
15937;DHT22;9163;48.818;8.976;2023-02-28T03:28:43;-3.70;99.90
15937;DHT22;9163;48.818;8.976;2023-02-28T03:31:16;-3.80;99.90
15937;DHT22;9163;48.818;8.976;2023-02-28T03:33:50;-3.70;99.90
15937;DHT22;9163;48.818;8.976;2023-02-28T03:36:25;-3.80;99.90
15937;DHT22;9163;48.818;8.976;2023-02-28T03:38:57;-3.70;99.90
15937;DHT22;9163;48.818;8.976;2023-02-28T03:41:32;-3.70;99.90
15937;DHT22;9163;48.818;8.976;2023-02-28T03:44:06;-3.80;99.90
15937;DHT22;9163;48.818;8.976;2023-02-28T03:46:37;-3.70;99.90
15937;DHT22;9163;48.818;8.976;2023-02-28T03:49:09;-3.60;99.90
15937;DHT22;9163;48.818;8.976;2023-02-28T03:51:41;-3.60;99.90
15937;DHT22;9163;48.818;8.976;2023-02-28T03:54:12;-3.50;99.90
15937;DHT22;9163;48.818;8.976;2023-02-28T03:56:45;-3.50;99.90
15937;DHT22;9163;48.818;8.976;2023-02-28T03:59:17;-3.50;99.90
15937;DHT22;9163;48.818;8.976;2023-02-28T04:01:47;-3.50;99.90
15937;DHT22;9163;48.818;8.976;2023-02-28T04:04:16;-3.50;99.90
15937;DHT22;9163;48.818;8.976;2023-02-28T04:06:45;-3.40;99.90
15937;DHT22;9163;48.818;8.976;2023-02-28T04:09:14;-3.40;99.90
15937;DHT22;9163;48.818;8.976;2023-02-28T04:11:42;-3.40;99.90
15937;DHT22;9163;48.818;8.976;2023-02-28T04:14:11;-3.40;99.90
15937;DHT22;9163;48.818;8.976;2023-02-28T04:16:41;-3.40;99.90
15937;DHT22;9163;48.818;8.976;2023-02-28T04:19:10;-3.40;99.90
15937;DHT22;9163;48.818;8.976;2023-02-28T04:21:38;-3.30;99.90
15937;DHT22;9163;48.818;8.976;2023-02-28T04:24:08;-3.30;99.90
15937;DHT22;9163;48.818;8.976;2023-02-28T04:26:41;-3.30;99.90
15937;DHT22;9163;48.818;8.976;2023-02-28T04:29:10;-3.20;99.90
15937;DHT22;9163;48.818;8.976;2023-02-28T04:31:38;-3.20;99.90
15937;DHT22;9163;48.818;8.976;2023-02-28T04:34:06;-3.10;99.90
15937;DHT22;9163;48.818;8.976;2023-02-28T04:36:33;-3.00;99.90
15937;DHT22;9163;48.818;8.976;2023-02-28T04:39:00;-2.90;99.90
15937;DHT22;9163;48.818;8.976;2023-02-28T04:41:29;-2.90;99.90
15937;DHT22;9163;48.818;8.976;2023-02-28T04:43:56;-2.90;99.90
15937;DHT22;9163;48.818;8.976;2023-02-28T04:46:24;-2.80;99.90
15937;DHT22;9163;48.818;8.976;2023-02-28T04:48:51;-2.60;99.90
15937;DHT22;9163;48.818;8.976;2023-02-28T04:51:20;-2.60;99.90
15937;DHT22;9163;48.818;8.976;2023-02-28T04:53:48;-2.50;99.90
15937;DHT22;9163;48.818;8.976;2023-02-28T04:56:16;-2.50;99.90
15937;DHT22;9163;48.818;8.976;2023-02-28T04:58:45;-2.40;99.90
15937;DHT22;9163;48.818;8.976;2023-02-28T05:01:19;-2.40;99.90
15937;DHT22;9163;48.818;8.976;2023-02-28T05:03:46;-2.40;99.90
15937;DHT22;9163;48.818;8.976;2023-02-28T05:06:14;-2.40;99.90
15937;DHT22;9163;48.818;8.976;2023-02-28T05:08:41;-2.30;99.90
15937;DHT22;9163;48.818;8.976;2023-02-28T05:11:15;-2.30;99.90
15937;DHT22;9163;48.818;8.976;2023-02-28T05:13:44;-2.20;99.90
15937;DHT22;9163;48.818;8.976;2023-02-28T05:16:12;-2.20;99.90
15937;DHT22;9163;48.818;8.976;2023-02-28T05:18:40;-2.20;99.90
15937;DHT22;9163;48.818;8.976;2023-02-28T05:21:23;-2.20;99.90
15937;DHT22;9163;48.818;8.976;2023-02-28T05:23:51;-2.20;99.90
15937;DHT22;9163;48.818;8.976;2023-02-28T05:26:18;-2.20;99.90
15937;DHT22;9163;48.818;8.976;2023-02-28T05:28:47;-2.20;99.90
15937;DHT22;9163;48.818;8.976;2023-02-28T05:31:14;-2.30;99.90
15937;DHT22;9163;48.818;8.976;2023-02-28T05:33:41;-2.30;99.90
15937;DHT22;9163;48.818;8.976;2023-02-28T05:36:09;-2.40;99.90
15937;DHT22;9163;48.818;8.976;2023-02-28T05:38:36;-2.50;99.90
15937;DHT22;9163;48.818;8.976;2023-02-28T05:41:07;-2.50;99.90
15937;DHT22;9163;48.818;8.976;2023-02-28T05:43:35;-2.60;99.90
15937;DHT22;9163;48.818;8.976;2023-02-28T05:46:05;-2.60;99.90
15937;DHT22;9163;48.818;8.976;2023-02-28T05:48:33;-2.60;99.90
15937;DHT22;9163;48.818;8.976;2023-02-28T05:51:00;-2.60;99.90
15937;DHT22;9163;48.818;8.976;2023-02-28T05:53:28;-2.60;99.90
15937;DHT22;9163;48.818;8.976;2023-02-28T05:55:56;-2.60;99.90
15937;DHT22;9163;48.818;8.976;2023-02-28T05:58:24;-2.50;99.90
15937;DHT22;9163;48.818;8.976;2023-02-28T06:00:55;-2.60;99.90
15937;DHT22;9163;48.818;8.976;2023-02-28T06:03:23;-2.60;99.90
15937;DHT22;9163;48.818;8.976;2023-02-28T06:05:51;-2.50;99.90
15937;DHT22;9163;48.818;8.976;2023-02-28T06:08:18;-2.50;99.90
15937;DHT22;9163;48.818;8.976;2023-02-28T06:10:45;-2.50;99.90
15937;DHT22;9163;48.818;8.976;2023-02-28T06:13:13;-2.50;99.90
15937;DHT22;9163;48.818;8.976;2023-02-28T06:15:41;-2.50;99.90
15937;DHT22;9163;48.818;8.976;2023-02-28T06:18:08;-2.50;99.90
15937;DHT22;9163;48.818;8.976;2023-02-28T06:20:37;-2.50;99.90
15937;DHT22;9163;48.818;8.976;2023-02-28T06:23:04;-2.50;99.90
15937;DHT22;9163;48.818;8.976;2023-02-28T06:25:31;-2.50;99.90
15937;DHT22;9163;48.818;8.976;2023-02-28T06:27:58;-2.50;99.90
15937;DHT22;9163;48.818;8.976;2023-02-28T06:30:25;-2.50;99.90
15937;DHT22;9163;48.818;8.976;2023-02-28T06:32:54;-2.50;99.90
15937;DHT22;9163;48.818;8.976;2023-02-28T06:35:21;-2.50;99.90
15937;DHT22;9163;48.818;8.976;2023-02-28T06:37:50;-2.50;99.90
15937;DHT22;9163;48.818;8.976;2023-02-28T06:40:17;-2.50;99.90
15937;DHT22;9163;48.818;8.976;2023-02-28T06:42:45;-2.50;99.90
15937;DHT22;9163;48.818;8.976;2023-02-28T06:45:12;-2.50;99.90
15937;DHT22;9163;48.818;8.976;2023-02-28T06:47:40;-2.50;99.90
15937;DHT22;9163;48.818;8.976;2023-02-28T06:50:09;-2.50;99.90
15937;DHT22;9163;48.818;8.976;2023-02-28T06:52:37;-2.50;99.90
15937;DHT22;9163;48.818;8.976;2023-02-28T06:55:07;-2.50;99.90
15937;DHT22;9163;48.818;8.976;2023-02-28T06:57:35;-2.40;99.90
15937;DHT22;9163;48.818;8.976;2023-02-28T07:00:06;-2.30;99.90
15937;DHT22;9163;48.818;8.976;2023-02-28T07:02:35;-2.40;99.90
15937;DHT22;9163;48.818;8.976;2023-02-28T07:05:02;-2.30;99.90
15937;DHT22;9163;48.818;8.976;2023-02-28T07:07:30;-2.30;99.90
15937;DHT22;9163;48.818;8.976;2023-02-28T07:09:58;-2.20;99.90
15937;DHT22;9163;48.818;8.976;2023-02-28T07:12:26;-2.20;99.90
15937;DHT22;9163;48.818;8.976;2023-02-28T07:18:13;-2.10;99.90
15937;DHT22;9163;48.818;8.976;2023-02-28T07:20:40;-2.10;99.90
15937;DHT22;9163;48.818;8.976;2023-02-28T07:23:08;-2.20;99.90
15937;DHT22;9163;48.818;8.976;2023-02-28T07:25:35;-2.10;99.90
15937;DHT22;9163;48.818;8.976;2023-02-28T07:28:04;-2.10;99.90
15937;DHT22;9163;48.818;8.976;2023-02-28T07:30:31;-2.00;99.90
15937;DHT22;9163;48.818;8.976;2023-02-28T07:32:59;-1.90;99.90
15937;DHT22;9163;48.818;8.976;2023-02-28T07:35:26;-1.90;99.90
15937;DHT22;9163;48.818;8.976;2023-02-28T07:37:53;-1.90;99.90
15937;DHT22;9163;48.818;8.976;2023-02-28T07:40:20;-1.80;99.90
15937;DHT22;9163;48.818;8.976;2023-02-28T07:42:48;-1.80;99.90
15937;DHT22;9163;48.818;8.976;2023-02-28T07:45:17;-1.80;99.90
15937;DHT22;9163;48.818;8.976;2023-02-28T07:47:45;-1.80;99.90
15937;DHT22;9163;48.818;8.976;2023-02-28T07:50:15;-1.80;99.90
15937;DHT22;9163;48.818;8.976;2023-02-28T07:52:43;-1.80;99.90
15937;DHT22;9163;48.818;8.976;2023-02-28T07:55:10;-1.80;99.90
15937;DHT22;9163;48.818;8.976;2023-02-28T07:57:37;-1.70;99.90
15937;DHT22;9163;48.818;8.976;2023-02-28T08:00:07;-1.70;99.90
15937;DHT22;9163;48.818;8.976;2023-02-28T08:02:36;-1.70;99.90
15937;DHT22;9163;48.818;8.976;2023-02-28T08:05:04;-1.60;99.90
15937;DHT22;9163;48.818;8.976;2023-02-28T08:07:31;-1.60;99.90
15937;DHT22;9163;48.818;8.976;2023-02-28T08:09:59;-1.60;99.90
15937;DHT22;9163;48.818;8.976;2023-02-28T08:12:27;-1.50;99.90
15937;DHT22;9163;48.818;8.976;2023-02-28T08:14:54;-1.50;99.90
15937;DHT22;9163;48.818;8.976;2023-02-28T08:17:21;-1.50;99.90
15937;DHT22;9163;48.818;8.976;2023-02-28T08:19:50;-1.40;99.90
15937;DHT22;9163;48.818;8.976;2023-02-28T08:22:17;-1.40;99.90
15937;DHT22;9163;48.818;8.976;2023-02-28T08:24:44;-1.40;99.90
15937;DHT22;9163;48.818;8.976;2023-02-28T08:27:11;-1.40;99.90
15937;DHT22;9163;48.818;8.976;2023-02-28T08:29:39;-1.40;99.90
15937;DHT22;9163;48.818;8.976;2023-02-28T08:32:07;-1.50;99.90
15937;DHT22;9163;48.818;8.976;2023-02-28T08:34:34;-1.50;99.90
15937;DHT22;9163;48.818;8.976;2023-02-28T08:37:02;-1.50;99.90
15937;DHT22;9163;48.818;8.976;2023-02-28T08:39:30;-1.50;99.90
15937;DHT22;9163;48.818;8.976;2023-02-28T08:41:57;-1.50;99.90
15937;DHT22;9163;48.818;8.976;2023-02-28T08:44:24;-1.40;99.90
15937;DHT22;9163;48.818;8.976;2023-02-28T08:46:51;-1.40;99.90
15937;DHT22;9163;48.818;8.976;2023-02-28T08:49:18;-1.30;99.90
15937;DHT22;9163;48.818;8.976;2023-02-28T08:51:46;-1.20;99.90
15937;DHT22;9163;48.818;8.976;2023-02-28T08:54:14;-1.10;99.90
15937;DHT22;9163;48.818;8.976;2023-02-28T08:56:45;-1.10;99.90
15937;DHT22;9163;48.818;8.976;2023-02-28T08:59:13;-1.10;99.90
15937;DHT22;9163;48.818;8.976;2023-02-28T09:01:40;-1.10;99.90
15937;DHT22;9163;48.818;8.976;2023-02-28T09:04:09;-1.00;99.90
15937;DHT22;9163;48.818;8.976;2023-02-28T09:06:37;-1.00;99.90
15937;DHT22;9163;48.818;8.976;2023-02-28T09:09:05;-1.00;99.90
15937;DHT22;9163;48.818;8.976;2023-02-28T09:11:35;-0.90;99.90
15937;DHT22;9163;48.818;8.976;2023-02-28T09:14:03;-0.90;99.90
15937;DHT22;9163;48.818;8.976;2023-02-28T09:16:30;-0.80;99.90
15937;DHT22;9163;48.818;8.976;2023-02-28T09:18:58;-0.80;99.90
15937;DHT22;9163;48.818;8.976;2023-02-28T09:21:25;-0.90;99.90
15937;DHT22;9163;48.818;8.976;2023-02-28T09:23:53;-0.80;99.90
15937;DHT22;9163;48.818;8.976;2023-02-28T09:26:22;-0.80;99.90
15937;DHT22;9163;48.818;8.976;2023-02-28T09:28:52;-0.80;99.90
15937;DHT22;9163;48.818;8.976;2023-02-28T09:31:21;-0.70;99.90
15937;DHT22;9163;48.818;8.976;2023-02-28T09:33:49;-0.70;99.90
15937;DHT22;9163;48.818;8.976;2023-02-28T09:36:17;-0.50;99.90
15937;DHT22;9163;48.818;8.976;2023-02-28T09:38:44;-0.40;99.90
15937;DHT22;9163;48.818;8.976;2023-02-28T09:41:14;-0.40;99.90
15937;DHT22;9163;48.818;8.976;2023-02-28T09:43:46;-0.30;99.90
15937;DHT22;9163;48.818;8.976;2023-02-28T09:46:25;-0.10;99.90
15937;DHT22;9163;48.818;8.976;2023-02-28T09:48:54;0.00;99.90
15937;DHT22;9163;48.818;8.976;2023-02-28T09:51:30;0.10;99.90
15937;DHT22;9163;48.818;8.976;2023-02-28T09:54:00;0.00;99.90
15937;DHT22;9163;48.818;8.976;2023-02-28T09:56:31;0.10;99.90
15937;DHT22;9163;48.818;8.976;2023-02-28T09:59:02;0.20;99.90
15937;DHT22;9163;48.818;8.976;2023-02-28T10:01:39;0.20;99.40
15937;DHT22;9163;48.818;8.976;2023-02-28T10:04:11;0.40;96.50
15937;DHT22;9163;48.818;8.976;2023-02-28T10:06:45;0.40;94.00
15937;DHT22;9163;48.818;8.976;2023-02-28T10:09:17;0.40;73.10
15937;DHT22;9163;48.818;8.976;2023-02-28T10:11:46;0.40;84.70
15937;DHT22;9163;48.818;8.976;2023-02-28T10:14:16;0.40;59.40
15937;DHT22;9163;48.818;8.976;2023-02-28T10:16:48;0.40;47.10
15937;DHT22;9163;48.818;8.976;2023-02-28T10:19:23;0.40;48.70
15937;DHT22;9163;48.818;8.976;2023-02-28T10:21:56;0.40;36.70
15937;DHT22;9163;48.818;8.976;2023-02-28T10:24:29;0.40;28.80
15937;DHT22;9163;48.818;8.976;2023-02-28T10:27:01;0.40;26.30
15937;DHT22;9163;48.818;8.976;2023-02-28T10:29:31;0.50;45.90
15937;DHT22;9163;48.818;8.976;2023-02-28T10:32:02;0.70;33.00
15937;DHT22;9163;48.818;8.976;2023-02-28T10:34:30;0.70;19.40
15937;DHT22;9163;48.818;8.976;2023-02-28T10:36:59;1.00;25.20
15937;DHT22;9163;48.818;8.976;2023-02-28T10:39:38;1.30;24.60
15937;DHT22;9163;48.818;8.976;2023-02-28T10:42:19;1.40;6.00
15937;DHT22;9163;48.818;8.976;2023-02-28T10:44:47;1.30;4.70
15937;DHT22;9163;48.818;8.976;2023-02-28T10:47:17;1.40;1.00
15937;DHT22;9163;48.818;8.976;2023-02-28T10:49:47;1.60;1.60
15937;DHT22;9163;48.818;8.976;2023-02-28T10:52:33;2.00;1.00
15937;DHT22;9163;48.818;8.976;2023-02-28T10:55:19;2.10;1.00
15937;DHT22;9163;48.818;8.976;2023-02-28T10:57:48;2.40;1.00
15937;DHT22;9163;48.818;8.976;2023-02-28T11:00:17;2.70;1.00
15937;DHT22;9163;48.818;8.976;2023-02-28T11:02:46;2.70;1.00
15937;DHT22;9163;48.818;8.976;2023-02-28T11:05:27;2.80;1.00
15937;DHT22;9163;48.818;8.976;2023-02-28T11:07:59;3.00;1.00
15937;DHT22;9163;48.818;8.976;2023-02-28T11:10:31;3.90;1.00
15937;DHT22;9163;48.818;8.976;2023-02-28T11:13:01;5.20;1.00
15937;DHT22;9163;48.818;8.976;2023-02-28T11:15:30;6.40;1.00
15937;DHT22;9163;48.818;8.976;2023-02-28T11:18:02;7.00;1.00
15937;DHT22;9163;48.818;8.976;2023-02-28T11:20:31;8.00;1.00
15937;DHT22;9163;48.818;8.976;2023-02-28T11:23:01;7.60;1.00
15937;DHT22;9163;48.818;8.976;2023-02-28T11:25:31;7.20;1.00
15937;DHT22;9163;48.818;8.976;2023-02-28T11:28:00;7.10;1.00
15937;DHT22;9163;48.818;8.976;2023-02-28T11:30:33;8.40;1.00
15937;DHT22;9163;48.818;8.976;2023-02-28T11:33:26;10.00;5.90
15937;DHT22;9163;48.818;8.976;2023-02-28T11:35:57;12.10;26.50
15937;DHT22;9163;48.818;8.976;2023-02-28T11:38:26;12.50;73.70
15937;DHT22;9163;48.818;8.976;2023-02-28T11:41:09;12.60;56.20
15937;DHT22;9163;48.818;8.976;2023-02-28T11:43:57;11.80;47.00
15937;DHT22;9163;48.818;8.976;2023-02-28T11:46:33;11.00;61.90
15937;DHT22;9163;48.818;8.976;2023-02-28T11:49:23;10.40;62.70
15937;DHT22;9163;48.818;8.976;2023-02-28T11:51:57;10.10;62.50
15937;DHT22;9163;48.818;8.976;2023-02-28T11:54:48;10.00;58.70
15937;DHT22;9163;48.818;8.976;2023-02-28T11:57:35;11.60;60.80
15937;DHT22;9163;48.818;8.976;2023-02-28T12:00:10;12.80;50.30
15937;DHT22;9163;48.818;8.976;2023-02-28T12:03:00;14.00;49.40
15937;DHT22;9163;48.818;8.976;2023-02-28T12:05:34;15.40;43.40
15937;DHT22;9163;48.818;8.976;2023-02-28T12:08:15;17.50;30.30
15937;DHT22;9163;48.818;8.976;2023-02-28T12:10:52;18.80;32.20
15937;DHT22;9163;48.818;8.976;2023-02-28T12:13:25;18.90;31.20
15937;DHT22;9163;48.818;8.976;2023-02-28T12:16:07;19.50;19.70
15937;DHT22;9163;48.818;8.976;2023-02-28T12:18:51;20.20;19.20
15937;DHT22;9163;48.818;8.976;2023-02-28T12:21:30;19.80;15.80
15937;DHT22;9163;48.818;8.976;2023-02-28T12:24:22;19.30;16.80
15937;DHT22;9163;48.818;8.976;2023-02-28T12:26:53;17.80;8.80
15937;DHT22;9163;48.818;8.976;2023-02-28T12:29:24;16.50;3.40
15937;DHT22;9163;48.818;8.976;2023-02-28T12:31:55;16.50;7.50
15937;DHT22;9163;48.818;8.976;2023-02-28T12:34:28;17.20;5.70
15937;DHT22;9163;48.818;8.976;2023-02-28T12:37:03;17.20;8.50
15937;DHT22;9163;48.818;8.976;2023-02-28T12:39:35;17.80;3.10
15937;DHT22;9163;48.818;8.976;2023-02-28T12:42:07;18.40;1.00
15937;DHT22;9163;48.818;8.976;2023-02-28T12:44:40;19.00;1.00
15937;DHT22;9163;48.818;8.976;2023-02-28T12:47:14;20.00;1.00
15937;DHT22;9163;48.818;8.976;2023-02-28T12:49:45;19.90;1.00
15937;DHT22;9163;48.818;8.976;2023-02-28T12:52:19;20.10;1.00
15937;DHT22;9163;48.818;8.976;2023-02-28T12:54:52;19.90;1.00
15937;DHT22;9163;48.818;8.976;2023-02-28T12:57:28;19.80;1.00
15937;DHT22;9163;48.818;8.976;2023-02-28T13:00:01;19.60;1.00
15937;DHT22;9163;48.818;8.976;2023-02-28T13:05:59;17.90;1.00
15937;DHT22;9163;48.818;8.976;2023-02-28T13:08:57;17.60;1.00
15937;DHT22;9163;48.818;8.976;2023-02-28T13:11:29;18.60;1.00
15937;DHT22;9163;48.818;8.976;2023-02-28T13:13:58;19.10;1.00
15937;DHT22;9163;48.818;8.976;2023-02-28T13:16:26;18.80;1.00
15937;DHT22;9163;48.818;8.976;2023-02-28T13:19:08;19.90;1.00
15937;DHT22;9163;48.818;8.976;2023-02-28T13:21:42;21.10;1.00
15937;DHT22;9163;48.818;8.976;2023-02-28T13:24:43;20.60;1.00
15937;DHT22;9163;48.818;8.976;2023-02-28T13:27:36;21.00;1.00
15937;DHT22;9163;48.818;8.976;2023-02-28T13:33:23;23.00;1.00
15937;DHT22;9163;48.818;8.976;2023-02-28T13:36:07;23.30;1.00
15937;DHT22;9163;48.818;8.976;2023-02-28T13:38:43;23.90;1.00
15937;DHT22;9163;48.818;8.976;2023-02-28T13:41:47;23.70;1.00
15937;DHT22;9163;48.818;8.976;2023-02-28T13:44:18;23.90;1.00
15937;DHT22;9163;48.818;8.976;2023-02-28T13:47:21;23.40;1.00
15937;DHT22;9163;48.818;8.976;2023-02-28T13:49:51;22.40;1.00
15937;DHT22;9163;48.818;8.976;2023-02-28T13:52:23;21.30;1.00
15937;DHT22;9163;48.818;8.976;2023-02-28T13:55:11;20.90;1.00
15937;DHT22;9163;48.818;8.976;2023-02-28T13:57:53;21.60;1.00
15937;DHT22;9163;48.818;8.976;2023-02-28T14:00:30;21.90;1.00
15937;DHT22;9163;48.818;8.976;2023-02-28T14:03:28;21.70;1.00
15937;DHT22;9163;48.818;8.976;2023-02-28T14:06:18;22.50;1.00
15937;DHT22;9163;48.818;8.976;2023-02-28T14:08:54;21.50;1.00
15937;DHT22;9163;48.818;8.976;2023-02-28T14:11:31;20.90;1.00
15937;DHT22;9163;48.818;8.976;2023-02-28T14:14:00;19.80;1.00
15937;DHT22;9163;48.818;8.976;2023-02-28T14:16:36;19.80;1.00
15937;DHT22;9163;48.818;8.976;2023-02-28T14:19:11;19.00;1.00
15937;DHT22;9163;48.818;8.976;2023-02-28T14:21:46;19.30;1.00
15937;DHT22;9163;48.818;8.976;2023-02-28T14:24:42;20.40;1.00
15937;DHT22;9163;48.818;8.976;2023-02-28T14:27:35;21.40;1.00
15937;DHT22;9163;48.818;8.976;2023-02-28T14:33:27;21.70;1.00
15937;DHT22;9163;48.818;8.976;2023-02-28T14:36:06;21.20;1.00
15937;DHT22;9163;48.818;8.976;2023-02-28T14:38:37;21.20;1.00
15937;DHT22;9163;48.818;8.976;2023-02-28T14:41:19;21.70;1.00
15937;DHT22;9163;48.818;8.976;2023-02-28T14:43:53;22.10;1.00
15937;DHT22;9163;48.818;8.976;2023-02-28T14:46:23;21.90;1.00
15937;DHT22;9163;48.818;8.976;2023-02-28T14:48:52;21.70;1.00
15937;DHT22;9163;48.818;8.976;2023-02-28T14:51:21;21.60;1.00
15937;DHT22;9163;48.818;8.976;2023-02-28T14:53:51;21.50;1.00
15937;DHT22;9163;48.818;8.976;2023-02-28T14:56:21;21.40;1.00
15937;DHT22;9163;48.818;8.976;2023-02-28T14:58:54;21.70;1.00
15937;DHT22;9163;48.818;8.976;2023-02-28T15:01:23;21.40;1.00
15937;DHT22;9163;48.818;8.976;2023-02-28T15:04:01;21.40;1.00
15937;DHT22;9163;48.818;8.976;2023-02-28T15:06:29;20.00;1.00
15937;DHT22;9163;48.818;8.976;2023-02-28T15:09:15;18.80;1.00
15937;DHT22;9163;48.818;8.976;2023-02-28T15:11:46;18.30;1.00
15937;DHT22;9163;48.818;8.976;2023-02-28T15:14:18;18.10;1.00
15937;DHT22;9163;48.818;8.976;2023-02-28T15:16:49;17.90;1.00
15937;DHT22;9163;48.818;8.976;2023-02-28T15:19:23;18.20;1.00
15937;DHT22;9163;48.818;8.976;2023-02-28T15:21:55;18.70;1.00
15937;DHT22;9163;48.818;8.976;2023-02-28T15:24:31;18.70;1.00
15937;DHT22;9163;48.818;8.976;2023-02-28T15:27:02;18.40;1.00
15937;DHT22;9163;48.818;8.976;2023-02-28T15:29:34;18.30;1.00
15937;DHT22;9163;48.818;8.976;2023-02-28T15:32:06;18.00;1.00
15937;DHT22;9163;48.818;8.976;2023-02-28T15:34:36;17.80;1.00
15937;DHT22;9163;48.818;8.976;2023-02-28T15:39:49;16.10;1.00
15937;DHT22;9163;48.818;8.976;2023-02-28T15:42:19;15.20;1.00
15937;DHT22;9163;48.818;8.976;2023-02-28T15:44:47;15.00;1.00
15937;DHT22;9163;48.818;8.976;2023-02-28T15:47:17;14.70;1.00
15937;DHT22;9163;48.818;8.976;2023-02-28T15:49:49;14.10;1.00
15937;DHT22;9163;48.818;8.976;2023-02-28T15:52:19;13.40;1.00
15937;DHT22;9163;48.818;8.976;2023-02-28T15:54:48;12.90;1.00
15937;DHT22;9163;48.818;8.976;2023-02-28T15:57:19;12.50;1.00
15937;DHT22;9163;48.818;8.976;2023-02-28T15:59:51;12.20;1.00
15937;DHT22;9163;48.818;8.976;2023-02-28T16:02:22;11.60;1.00
15937;DHT22;9163;48.818;8.976;2023-02-28T16:05:02;11.50;1.00
15937;DHT22;9163;48.818;8.976;2023-02-28T16:07:29;11.00;1.00
15937;DHT22;9163;48.818;8.976;2023-02-28T16:09:56;10.50;1.00
15937;DHT22;9163;48.818;8.976;2023-02-28T16:12:27;10.30;1.00
15937;DHT22;9163;48.818;8.976;2023-02-28T16:14:56;10.00;1.00
15937;DHT22;9163;48.818;8.976;2023-02-28T16:17:26;9.40;1.00
15937;DHT22;9163;48.818;8.976;2023-02-28T16:19:54;9.00;1.00
15937;DHT22;9163;48.818;8.976;2023-02-28T16:22:22;8.60;1.00
15937;DHT22;9163;48.818;8.976;2023-02-28T16:24:50;8.10;1.00
15937;DHT22;9163;48.818;8.976;2023-02-28T16:27:20;7.80;1.00
15937;DHT22;9163;48.818;8.976;2023-02-28T16:29:48;7.40;1.00
15937;DHT22;9163;48.818;8.976;2023-02-28T16:32:15;7.00;99.90
15937;DHT22;9163;48.818;8.976;2023-02-28T16:34:43;6.90;1.00
15937;DHT22;9163;48.818;8.976;2023-02-28T16:37:15;6.60;1.00
15937;DHT22;9163;48.818;8.976;2023-02-28T16:39:45;6.40;99.90
15937;DHT22;9163;48.818;8.976;2023-02-28T16:42:21;6.20;88.10
15937;DHT22;9163;48.818;8.976;2023-02-28T16:44:49;6.00;99.90
15937;DHT22;9163;48.818;8.976;2023-02-28T16:47:16;5.70;99.90
15937;DHT22;9163;48.818;8.976;2023-02-28T16:49:44;5.50;99.90